createdAt,value
2022-08-27T00:01:04.273Z,20.17
2022-08-27T00:05:14.917Z,20.06
2022-08-27T00:09:17.630Z,20.09
2022-08-27T00:13:29.291Z,20.08
2022-08-27T00:17:31.477Z,20.01
2022-08-27T00:21:33.593Z,19.99
2022-08-27T00:25:35.908Z,20.00
2022-08-27T00:29:37.979Z,19.98
2022-08-27T00:33:41.598Z,19.95
2022-08-27T00:37:44.081Z,19.95
2022-08-27T00:41:46.348Z,19.92
2022-08-27T00:45:48.864Z,19.77
2022-08-27T00:49:54.973Z,19.83
2022-08-27T00:53:59.190Z,19.83
2022-08-27T00:58:37.291Z,19.88
2022-08-27T01:02:39.422Z,19.79
2022-08-27T01:06:41.631Z,19.78
2022-08-27T01:10:45.724Z,19.64
2022-08-27T01:14:47.700Z,19.58
2022-08-27T01:18:50.566Z,19.55
2022-08-27T01:22:57.493Z,19.57
2022-08-27T01:27:01.240Z,19.50
2022-08-27T01:31:09.487Z,19.44
2022-08-27T01:35:13.598Z,19.31
2022-08-27T01:39:15.585Z,19.29
2022-08-27T01:43:17.810Z,19.21
2022-08-27T01:47:22.261Z,19.26
2022-08-27T01:51:24.437Z,19.25
2022-08-27T01:55:27.411Z,19.28
2022-08-27T01:59:39.119Z,19.27
2022-08-27T02:03:42.653Z,19.27
2022-08-27T02:07:45.465Z,19.24
2022-08-27T02:11:48.914Z,19.24
2022-08-27T02:15:52.606Z,19.22
2022-08-27T02:19:54.874Z,19.23
2022-08-27T02:23:57.241Z,19.22
2022-08-27T02:28:00.570Z,19.21
2022-08-27T02:32:03.023Z,19.19
2022-08-27T02:36:06.099Z,19.17
2022-08-27T02:40:09.970Z,19.12
2022-08-27T02:44:13.807Z,19.14
2022-08-27T02:48:16.091Z,19.03
2022-08-27T02:52:24.911Z,19.02
2022-08-27T02:56:28.524Z,19.02
2022-08-27T03:00:30.870Z,18.99
2022-08-27T03:04:33.294Z,18.97
2022-08-27T03:08:51.927Z,18.96
2022-08-27T03:12:55.405Z,18.90
2022-08-27T03:17:17.780Z,18.90
2022-08-27T03:21:24.286Z,18.91
2022-08-27T03:25:26.644Z,18.90
2022-08-27T03:29:28.835Z,18.92
2022-08-27T03:33:35.794Z,18.90
2022-08-27T03:37:37.940Z,18.77
2022-08-27T03:41:54.182Z,18.78
2022-08-27T03:46:01.874Z,18.70
2022-08-27T03:50:06.120Z,18.72
2022-08-27T03:54:08.061Z,18.71
2022-08-27T03:58:14.436Z,18.75
2022-08-27T04:02:16.629Z,18.76
2022-08-27T04:06:18.738Z,18.74
2022-08-27T04:10:21.494Z,18.72
2022-08-27T04:14:26.888Z,18.64
2022-08-27T04:18:29.720Z,18.64
2022-08-27T04:22:31.824Z,18.62
2022-08-27T04:26:33.927Z,18.60
2022-08-27T04:30:45.263Z,18.49
2022-08-27T04:34:47.607Z,18.44
2022-08-27T04:38:50.205Z,18.49
2022-08-27T04:42:52.783Z,18.54
2022-08-27T04:47:00.519Z,18.59
2022-08-27T04:51:02.607Z,18.61
2022-08-27T04:55:06.883Z,18.67
2022-08-27T04:59:11.001Z,18.71
2022-08-27T05:03:12.998Z,18.73
2022-08-27T05:07:15.429Z,18.66
2022-08-27T05:11:19.185Z,18.75
2022-08-27T05:15:43.465Z,18.88
2022-08-27T05:19:45.610Z,18.97
2022-08-27T05:23:48.239Z,19.06
2022-08-27T05:27:50.327Z,19.07
2022-08-27T05:31:52.415Z,18.93
2022-08-27T05:35:57.428Z,19.16
2022-08-27T05:40:04.698Z,19.40
2022-08-27T05:44:40.211Z,19.50
2022-08-27T05:48:36.212Z,19.67
2022-08-27T05:52:38.273Z,19.86
2022-08-27T05:56:42.440Z,20.00
2022-08-27T06:01:16.947Z,20.11
2022-08-27T06:05:20.041Z,20.24
2022-08-27T06:09:26.294Z,20.47
2022-08-27T06:13:30.055Z,20.57
2022-08-27T06:17:32.262Z,20.63
2022-08-27T06:21:35.167Z,20.57
2022-08-27T06:25:42.035Z,20.60
2022-08-27T06:29:45.348Z,21.03
2022-08-27T06:33:48.004Z,21.31
2022-08-27T06:37:50.613Z,21.53
2022-08-27T06:41:53.405Z,21.66
2022-08-27T06:45:57.983Z,21.81
2022-08-27T06:50:01.136Z,21.96
2022-08-27T06:54:08.953Z,22.05
2022-08-27T06:58:16.164Z,22.22
2022-08-27T07:02:18.568Z,22.37
2022-08-27T07:06:22.916Z,22.44
2022-08-27T07:15:15.140Z,22.66
2022-08-27T07:19:23.141Z,22.87
2022-08-27T07:23:25.775Z,23.06
2022-08-27T07:27:28.020Z,23.26
2022-08-27T07:31:35.821Z,23.47
2022-08-27T07:35:43.131Z,23.61
2022-08-27T07:39:50.175Z,23.85
2022-08-27T07:44:12.092Z,24.03
2022-08-27T07:48:16.666Z,24.22
2022-08-27T07:52:26.399Z,24.32
2022-08-27T07:56:31.273Z,24.51
2022-08-27T08:00:37.463Z,24.43
2022-08-27T08:04:43.195Z,24.38
2022-08-27T08:08:45.643Z,24.54
2022-08-27T08:12:51.463Z,24.62
2022-08-27T08:17:02.969Z,24.83
2022-08-27T08:21:13.550Z,25.13
2022-08-27T08:25:19.434Z,25.29
2022-08-27T08:29:27.587Z,25.58
2022-08-27T08:33:31.648Z,25.71
2022-08-27T08:37:34.335Z,25.88
2022-08-27T08:41:53.312Z,26.03
2022-08-27T08:46:00.199Z,26.02
2022-08-27T08:50:19.240Z,26.27
2022-08-27T08:54:23.564Z,26.41
2022-08-27T08:58:40.958Z,26.52
2022-08-27T09:02:55.213Z,26.62
2022-08-27T09:07:13.314Z,26.64
2022-08-27T09:11:36.642Z,26.61
2022-08-27T09:15:39.077Z,26.47
2022-08-27T09:19:42.900Z,26.64
2022-08-27T09:23:54.000Z,26.68
2022-08-27T09:27:59.658Z,26.72
2022-08-27T09:32:09.137Z,26.92
2022-08-27T09:36:19.347Z,27.04
2022-08-27T09:40:33.719Z,27.13
2022-08-27T09:44:52.924Z,27.35
2022-08-27T09:48:56.825Z,27.48
2022-08-27T09:52:59.922Z,27.57
2022-08-27T09:57:02.257Z,27.53
2022-08-27T10:01:20.914Z,27.70
2022-08-27T10:05:32.259Z,27.92
2022-08-27T10:09:38.600Z,27.97
2022-08-27T10:13:57.585Z,27.93
2022-08-27T10:18:08.863Z,27.96
2022-08-27T10:22:24.134Z,27.97
2022-08-27T10:26:34.097Z,28.06
2022-08-27T10:30:55.003Z,28.57
2022-08-27T10:35:15.589Z,28.66
2022-08-27T10:39:53.783Z,28.73
2022-08-27T10:44:20.898Z,28.96
2022-08-27T10:48:35.362Z,29.18
2022-08-27T10:52:56.785Z,29.23
2022-08-27T10:57:56.782Z,29.23
2022-08-27T11:02:33.452Z,29.19
2022-08-27T11:06:46.870Z,29.42
2022-08-27T11:10:51.913Z,29.70
2022-08-27T11:15:47.483Z,29.82
2022-08-27T11:20:03.450Z,29.85
2022-08-27T11:24:21.776Z,29.87
2022-08-27T11:28:31.505Z,29.85
2022-08-27T11:33:14.213Z,29.88
2022-08-27T11:37:22.534Z,30.32
2022-08-27T11:41:45.956Z,30.29
2022-08-27T11:46:02.559Z,30.41
2022-08-27T11:50:16.095Z,30.80
2022-08-27T11:54:27.880Z,31.25
2022-08-27T11:58:53.427Z,31.16
2022-08-27T12:03:26.200Z,31.10
2022-08-27T12:07:42.153Z,31.38
2022-08-27T12:12:16.498Z,31.24
2022-08-27T12:16:43.147Z,30.78
2022-08-27T12:21:16.578Z,30.22
2022-08-27T12:25:23.820Z,30.34
2022-08-27T12:29:51.196Z,30.47
2022-08-27T12:34:00.937Z,30.62
2022-08-27T12:38:50.715Z,30.94
2022-08-27T12:43:14.333Z,30.62
2022-08-27T12:47:23.088Z,30.55
2022-08-27T12:51:33.783Z,30.67
2022-08-27T12:56:06.670Z,30.71
2022-08-27T13:00:33.328Z,30.86
2022-08-27T13:04:44.197Z,30.84
2022-08-27T13:08:55.658Z,30.93
2022-08-27T13:13:14.387Z,31.10
2022-08-27T13:17:22.242Z,31.20
2022-08-27T13:21:33.127Z,31.26
2022-08-27T13:25:53.130Z,31.40
2022-08-27T13:30:02.026Z,31.24
2022-08-27T13:34:14.027Z,31.47
2022-08-27T13:38:19.123Z,31.33
2022-08-27T13:42:22.165Z,30.94
2022-08-27T13:46:30.059Z,31.04
2022-08-27T13:50:34.934Z,31.25
2022-08-27T13:54:37.300Z,31.03
2022-08-27T13:58:41.586Z,30.57
2022-08-27T14:02:47.296Z,30.27
2022-08-27T14:07:10.041Z,29.92
2022-08-27T14:11:12.476Z,29.69
2022-08-27T14:15:28.546Z,29.72
2022-08-27T14:19:36.315Z,29.57
2022-08-27T14:23:39.053Z,29.31
2022-08-27T14:27:53.042Z,28.79
2022-08-27T14:31:56.794Z,28.45
2022-08-27T14:35:59.435Z,28.28
2022-08-27T14:40:01.855Z,28.14
2022-08-27T14:44:05.025Z,27.82
2022-08-27T14:48:28.632Z,27.55
2022-08-27T14:52:31.265Z,26.40
2022-08-27T14:56:33.547Z,25.85
2022-08-27T15:00:36.672Z,25.93
2022-08-27T15:04:39.078Z,25.89
2022-08-27T15:08:45.387Z,25.13
2022-08-27T15:12:47.458Z,24.34
2022-08-27T15:16:50.188Z,24.01
2022-08-27T15:20:52.386Z,24.13
2022-08-27T15:24:57.020Z,24.18
2022-08-27T15:29:04.105Z,24.19
2022-08-27T15:33:08.418Z,24.33
2022-08-27T15:37:10.490Z,24.31
2022-08-27T15:41:12.821Z,23.73
2022-08-27T15:45:15.138Z,18.98
2022-08-27T15:50:01.103Z,18.35
2022-08-27T15:54:03.254Z,17.79
2022-08-27T15:58:05.803Z,17.69
2022-08-27T16:02:17.587Z,17.91
2022-08-27T16:06:25.097Z,17.85
2022-08-27T16:10:29.641Z,18.02
2022-08-27T16:14:32.169Z,18.37
2022-08-27T16:18:36.815Z,18.52
2022-08-27T16:22:41.569Z,18.52
2022-08-27T16:26:44.369Z,18.51
2022-08-27T16:30:47.854Z,18.52
2022-08-27T16:34:55.483Z,18.57
2022-08-27T16:38:58.218Z,18.51
2022-08-27T16:43:01.647Z,18.57
2022-08-27T16:47:04.209Z,18.61
2022-08-27T16:51:10.726Z,18.73
2022-08-27T16:55:13.635Z,18.77
2022-08-27T16:59:15.977Z,18.91
2022-08-27T17:03:20.169Z,19.12
2022-08-27T17:07:25.851Z,19.50
2022-08-27T17:11:30.793Z,19.58
2022-08-27T17:15:33.037Z,19.45
2022-08-27T17:19:37.230Z,19.40
2022-08-27T17:23:42.432Z,19.27
2022-08-27T17:27:44.668Z,20.02
2022-08-27T17:31:46.899Z,20.25
2022-08-27T17:35:49.525Z,19.99
2022-08-27T17:39:51.647Z,19.90
2022-08-27T17:43:57.749Z,19.85
2022-08-27T17:47:59.826Z,19.93
2022-08-27T17:52:11.638Z,20.16
2022-08-27T17:56:23.268Z,19.66
2022-08-27T18:00:30.526Z,19.34
2022-08-27T18:04:33.254Z,19.30
2022-08-27T18:08:35.355Z,19.26
2022-08-27T18:12:37.696Z,19.17
2022-08-27T18:16:40.825Z,19.08
2022-08-27T18:20:42.969Z,19.03
2022-08-27T18:24:44.986Z,18.85
2022-08-27T18:28:48.207Z,18.64
2022-08-27T18:32:50.706Z,18.81
2022-08-27T18:36:52.819Z,18.93
2022-08-27T18:40:55.278Z,18.93
2022-08-27T18:44:57.690Z,19.02
2022-08-27T18:48:59.735Z,18.95
2022-08-27T18:53:03.275Z,19.03
2022-08-27T18:57:05.678Z,19.10
2022-08-27T19:01:19.483Z,19.19
2022-08-27T19:05:25.394Z,19.10
2022-08-27T19:09:28.795Z,19.01
2022-08-27T19:13:31.587Z,18.89
2022-08-27T19:17:35.605Z,18.92
2022-08-27T19:21:41.233Z,18.87
2022-08-27T19:25:47.534Z,18.85
2022-08-27T19:29:51.047Z,18.80
2022-08-27T19:33:53.452Z,18.67
2022-08-27T19:37:56.626Z,18.58
2022-08-27T19:41:58.768Z,18.44
2022-08-27T19:46:02.747Z,18.57
2022-08-27T19:50:07.621Z,18.61
2022-08-27T19:54:09.818Z,18.59
2022-08-27T19:58:13.649Z,18.65
2022-08-27T20:02:15.918Z,18.56
2022-08-27T20:06:18.186Z,18.44
2022-08-27T20:10:36.164Z,18.32
2022-08-27T20:14:39.589Z,18.27
2022-08-27T20:18:44.419Z,18.28
2022-08-27T20:22:46.655Z,18.23
2022-08-27T20:26:49.018Z,18.35
2022-08-27T20:30:51.852Z,18.32
2022-08-27T20:34:53.950Z,18.06
2022-08-27T20:38:55.998Z,18.07
2022-08-27T20:42:58.404Z,18.02
2022-08-27T20:47:05.023Z,18.08
2022-08-27T20:51:07.177Z,17.92
2022-08-27T20:55:12.157Z,17.78
2022-08-27T20:59:33.587Z,17.73
2022-08-27T21:03:36.395Z,17.69
2022-08-27T21:07:38.821Z,17.59
2022-08-27T21:11:40.935Z,17.66
2022-08-27T21:15:43.356Z,17.81
2022-08-27T21:19:45.651Z,17.84
2022-08-27T21:23:48.937Z,17.82
2022-08-27T21:27:52.253Z,17.86
2022-08-27T21:31:54.855Z,17.94
2022-08-27T21:35:57.006Z,17.94
2022-08-27T21:39:59.288Z,18.03
2022-08-27T21:44:01.775Z,17.95
2022-08-27T21:48:03.850Z,18.01
2022-08-27T21:52:07.171Z,18.12
2022-08-27T21:56:09.895Z,18.14
2022-08-27T22:00:30.389Z,18.00
2022-08-27T22:04:33.184Z,17.94
2022-08-27T22:08:35.259Z,17.87
2022-08-27T22:12:37.445Z,17.64
2022-08-27T22:16:39.620Z,17.68
2022-08-27T22:20:42.558Z,17.73
2022-08-27T22:24:44.845Z,17.73
2022-08-27T22:28:47.522Z,17.77
2022-08-27T22:32:49.589Z,17.82
2022-08-27T22:36:51.788Z,17.88
2022-08-27T22:40:53.928Z,17.84
2022-08-27T22:44:56.010Z,17.75
2022-08-27T22:48:58.110Z,17.73
2022-08-27T22:53:00.102Z,17.80
2022-08-27T22:57:02.154Z,17.65
2022-08-27T23:01:04.647Z,17.58
2022-08-27T23:05:07.565Z,17.44
2022-08-27T23:09:10.025Z,17.47
2022-08-27T23:13:13.000Z,17.52
2022-08-27T23:17:16.185Z,17.57
2022-08-27T23:21:19.194Z,17.62
2022-08-27T23:25:41.374Z,17.62
2022-08-27T23:29:46.207Z,17.55
2022-08-27T23:33:52.660Z,17.52
2022-08-27T23:37:55.280Z,17.57
2022-08-27T23:41:57.284Z,17.30
2022-08-27T23:45:59.613Z,17.20
2022-08-27T23:50:01.908Z,17.26
2022-08-27T23:54:04.326Z,17.38
2022-08-27T23:58:07.749Z,17.41
